• Join FlightAware (Why Join?)
  • Login
  • US Flag 
Rudolph Flight #1: Scheduled 
11:38PM EST


 

Airport Tracker/Info


-or-


 

Live Flight TrackerFlight Track Log ✈ DAL3759 ✈ 21-Jul-2013 ✈ KDTW - KPHL

Flight Track Log - Related Links

Times and Time Zones

All times are in EDT time to prevent confusion due to time zone crossing. See the DAL3759 flight status page for this flight to view local times or setup timezone preferences in your user account.

Time Position Orientation Groundspeed Altitude Reporting Facility
EDT Latitude Longitude Course Direction KTS MPH feet Rate Location/Type
02:15PM 42.2314 -83.3314 90° East 157 181 1,300  Level Cleveland Center
02:16PM 42.2569 -83.3100 32° Northeast 200 230 2,200 1,740 Climbing Cleveland Center
02:17PM 42.3081 -83.2644 33° Northeast 248 285 4,200 2,040 Climbing Cleveland Center
02:18PM 42.2167 -82.8531 90° East  Level FlightAware Approximate
02:18PM 42.3453 -83.1819 59° Northeast 285 328 6,400  Level Cleveland Center
02:19PM 42.2167 -82.6863 90° East  Level FlightAware Approximate
02:19PM 42.3122 -83.0822 114° Southeast 307 353 9,000  Level Cleveland Center
02:20PM 42.2167 -82.5194 90° East  Level FlightAware Approximate
02:20PM 42.2750 -82.9714 114° Southeast 318 366 10,300  Level Cleveland Center
02:21PM 42.2483 -82.8439 106° East 333 383 12,000 1,740 Climbing Cleveland Center
02:22PM 42.2406 -82.7036 94° East 352 405 13,800 1,620 Climbing Cleveland Center
02:23PM 42.2306 -82.5631 95° East 369 425 15,300 1,200 Climbing Cleveland Center
02:24PM 42.2206 -82.4169 95° East 380 437 16,300 960 Climbing Cleveland Center
02:25PM 42.2103 -82.2653 95° East 395 455 17,300 900 Climbing Cleveland Center
02:26PM 42.1997 -82.1219 96° East 409 471 18,100 900 Climbing Cleveland Center
02:27PM 42.1850 -81.9647 97° East 417 480 19,100 900 Climbing Cleveland Center
02:28PM 42.1033 -81.8342 130° Southeast 411 473 20,000 780 Climbing Cleveland Center
02:29PM 42.0125 -81.7317 140° Southeast 416 479 20,700 660 Climbing Cleveland Center
02:30PM 41.9178 -81.6239 140° Southeast 435 501 21,400 660 Climbing Cleveland Center
02:31PM 41.8247 -81.5167 139° Southeast 444 511 22,100 720 Climbing Cleveland Center
02:32PM 41.7319 -81.4094 139° Southeast 450 518 22,900 720 Climbing Cleveland Center
02:33PM 41.6367 -81.3000 139° Southeast 450 518 23,600 660 Climbing Cleveland Center
02:34PM 41.5394 -81.1906 140° Southeast 450 518 24,300 600 Climbing Cleveland Center
02:35PM 41.4586 -81.0819 135° Southeast 455 524 24,900 600 Climbing Cleveland Center
02:36PM 41.3714 -80.9650 135° Southeast 455 524 25,500 540 Climbing Cleveland Center
02:37PM 41.2842 -80.8400 133° Southeast 455 524 26,000 480 Climbing Cleveland Center
02:38PM 41.1969 -80.7183 134° Southeast 455 524 26,500 480 Climbing Cleveland Center
02:39PM 41.1011 -80.5858 134° Southeast 460 529 27,000 480 Climbing Cleveland Center
02:40PM 41.0136 -80.4647 134° Southeast 455 524 27,500 480 Climbing Cleveland Center
02:41PM 40.9236 -80.3442 135° Southeast 455 524 28,000 480 Climbing Cleveland Center
02:42PM 40.8358 -80.2264 135° Southeast 460 529 28,500 480 Climbing Cleveland Center
02:43PM 40.7747 -80.0758 118° Southeast 453 521 29,000 240 Climbing Cleveland Center
02:44PM 40.7197 -79.9147 114° Southeast 464 534 29,000  Level Cleveland Center
02:45PM 40.6625 -79.7592 116° Southeast 464 534 29,000  Level Cleveland Center
02:46PM 40.6050 -79.6042 116° Southeast 469 540 29,000  Level Cleveland Center
02:47PM 40.5472 -79.4492 116° Southeast 469 540 29,000  Level Cleveland Center
02:48PM 40.5164 -79.2803 103° East 469 540 29,000  Level Cleveland Center
02:49PM 40.5017 -79.1031 96° East 464 534 29,000  Level Cleveland Center
02:50PM 40.4867 -78.9261 96° East 478 550 29,000  Level Cleveland Center
02:51PM 40.4717 -78.7625 97° East 491 565 29,000 -540 Level Cleveland Center
02:52PM 40.4539 -78.5803 97° East 503 579 28,000 -1,080 Descending Cleveland Center
02:54PM 40.4211 -78.2444 97° East 522 601 26,000 -1,080 Descending New York Center
02:55PM 40.4017 -78.0542 98° East 522 601 25,000 -540 Descending New York Center
02:56PM 40.3731 -77.8714 102° East 522 601 25,000 -540 Level New York Center
02:57PM 40.3444 -77.6886 102° East 517 595 24,000 -1,200 Descending New York Center
02:58PM 40.3172 -77.5089 101° East 506 582 22,600 -1,440 Descending New York Center
02:59PM 40.2914 -77.3403 101° East 493 567 21,200 -1,440 Descending New York Center
03:00PM 40.2628 -77.1769 103° East 471 542 19,800 -1,500 Descending New York Center
03:01PM 40.2378 -77.0197 102° East 452 520 18,300 -1,560 Descending New York Center
03:02PM 40.2114 -76.8486 101° East 434 499 16,800 -1,440 Descending New York Center
03:03PM 40.1878 -76.6969 101° East 426 490 15,400 -1,380 Descending New York Center
03:04PM 40.1647 -76.5700 103° East 411 473 14,100 -1,380 Descending New York Center
03:05PM 40.1425 -76.4297 102° East 400 460 12,700 -1,500 Descending New York Center
03:06PM 40.1203 -76.2786 101° East 393 452 11,100 -900 Descending New York Center
03:07PM 40.1100 -76.1419 96° East 388 447 11,000 -600 Descending New York Center
03:08PM 40.1011 -76.0167 95° East 370 426 10,000 -1,020 Descending New York Center
03:09PM 40.0950 -75.9183 95° East 322 371 9,100 -1,080 Descending New York Center
03:10PM 40.0892 -75.8094 94° East 305 351 7,900 -1,320 Descending New York Center
03:11PM 40.0792 -75.7056 97° East 292 336 6,500 -960 Descending New York Center
03:12PM 40.0750 -75.6050 93° East 287 330 6,000 -300 Descending New York Center
03:13PM 40.0728 -75.5044 92° East 287 330 6,000  Level New York Center
03:14PM 40.0664 -75.4008 95° East 282 325 6,000  Level New York Center
03:14PM 40.0500 -75.3333 108° East 259 298 6,000  Level Philadelphia TRACON
03:15PM 40.0167 -75.2500 118° Southeast 214 246 6,000  Level Philadelphia TRACON
03:16PM 39.9833 -75.2000 131° Southeast 216 249 6,000  Level Philadelphia TRACON
03:17PM 39.9833 -75.1333 90° East 217 250 6,000 -480 Level Philadelphia TRACON
03:19PM 39.9333 -75.0667 134° Southeast 213 245 5,000 -960 Descending Philadelphia TRACON
03:19PM 39.8833 -75.0500 166° South 207 238 4,000 -1,080 Descending Philadelphia TRACON
03:20PM 39.8667 -74.9833 108° East 206 237 3,000 -540 Descending Philadelphia TRACON
03:21PM 39.9167 -74.9667 14° North 208 239 3,000 -60 Level Philadelphia TRACON
03:23PM 39.9167 -75.0333 270° West 197 227 2,900 -540 Descending Philadelphia TRACON
03:23PM 39.9000 -75.0833 247° West 191 220 2,100 -960 Descending Philadelphia TRACON
03:24PM 39.8833 -75.1667 255° West 171 197 1,100 -780 Descending Philadelphia TRACON
03:25PM 39.8833 -75.2000 270° West 134 154 500 300 Descending Philadelphia TRACON
03:26PM 39.8667 -75.2667 252° West 162 186 1,700 1,200 Climbing Philadelphia TRACON
03:27PM 39.9000 -75.3167 311° West 226 260 3,000 660 Climbing Philadelphia TRACON
03:28PM 39.9500 -75.2833 27° Northeast 217 250 3,000  Level Philadelphia TRACON
03:29PM 39.9667 -75.2167 72° East 215 247 3,000  Level Philadelphia TRACON
03:30PM 39.9500 -75.1667 113° Southeast 221 254 3,000  Level Philadelphia TRACON
03:31PM 39.9000 -75.1333 153° Southeast 211 243 3,000  Level Philadelphia TRACON
03:32PM 39.8667 -75.0667 123° Southeast 211 243 3,000  Level Philadelphia TRACON
03:33PM 39.8833 -75.0000 72° East 210 242 3,000  Level Philadelphia TRACON